Time;durP1;ratioP1;P1;durP2;ratioP2;P2;SDS_P1;SDS_P2;PMS_P1;PMS_P2;Temp;Humidity;BMP_temperature;BMP_pressure;BME280_temperature;BME280_humidity;BME280_pressure;Samples;Min_cycle;Max_cycle;Signal;HPM_P1;HPM_P2
2022/10/29 00:00:23;;;;;;;;;;;18.80;99.90;;;;;;5111444;28;19966;-23
2022/10/29 00:02:49;;;;;;;;;;;18.80;99.90;;;;;;5110901;28;19918;-24
2022/10/29 00:05:14;;;;;;;;;;;18.80;99.90;;;;;;5109934;28;20364;-24
2022/10/29 00:07:40;;;;;;;;;;;18.80;99.90;;;;;;5111309;28;19908;-24
2022/10/29 00:10:06;;;;;;;;;;;18.70;99.90;;;;;;5111178;28;19908;-24
2022/10/29 00:12:31;;;;;;;;;;;18.70;99.90;;;;;;5109475;28;19911;-24
2022/10/29 00:14:57;;;;;;;;;;;18.80;99.90;;;;;;5111319;28;19915;-24
2022/10/29 00:17:22;;;;;;;;;;;18.80;99.90;;;;;;5111573;28;20002;-24
2022/10/29 00:19:48;;;;;;;;;;;18.70;99.90;;;;;;5113993;28;19915;-24
2022/10/29 00:22:13;;;;;;;;;;;18.70;99.90;;;;;;5115118;28;19915;-24
2022/10/29 00:24:39;;;;;;;;;;;18.70;99.90;;;;;;5114471;28;19922;-24
2022/10/29 00:27:04;;;;;;;;;;;18.70;99.90;;;;;;5114909;28;20249;-24
2022/10/29 00:29:30;;;;;;;;;;;18.70;99.90;;;;;;5115002;28;19908;-24
2022/10/29 00:31:55;;;;;;;;;;;18.70;99.90;;;;;;5115043;28;19912;-24
2022/10/29 00:34:21;;;;;;;;;;;18.70;99.90;;;;;;5114833;28;20007;-24
2022/10/29 00:36:46;;;;;;;;;;;18.70;99.90;;;;;;5114574;28;19942;-24
2022/10/29 00:39:13;;;;;;;;;;;18.70;99.90;;;;;;5115206;28;19912;-24
2022/10/29 00:41:39;;;;;;;;;;;18.70;99.90;;;;;;5117303;28;19908;-24
2022/10/29 00:44:13;;;;;;;;;;;18.60;99.90;;;;;;5114874;28;19994;-24
2022/10/29 00:46:46;;;;;;;;;;;18.60;99.90;;;;;;5118002;27;19919;-24
2022/10/29 00:49:13;;;;;;;;;;;18.70;99.90;;;;;;5116349;28;20292;-24
2022/10/29 00:51:38;;;;;;;;;;;18.70;99.90;;;;;;5118111;28;20393;-23
2022/10/29 00:54:06;;;;;;;;;;;18.60;99.90;;;;;;5116335;28;20195;-23
2022/10/29 00:56:34;;;;;;;;;;;18.60;99.90;;;;;;5118712;28;20270;-23
2022/10/29 00:59:00;;;;;;;;;;;18.70;99.90;;;;;;5115554;28;19915;-24
2022/10/29 01:01:25;;;;;;;;;;;18.70;99.90;;;;;;5114366;28;19908;-24
2022/10/29 01:03:51;;;;;;;;;;;18.60;99.90;;;;;;5114001;28;19911;-24
2022/10/29 01:06:17;;;;;;;;;;;18.60;99.90;;;;;;5114576;27;19914;-24
2022/10/29 01:08:43;;;;;;;;;;;18.60;99.90;;;;;;5117792;28;19965;-24
2022/10/29 01:11:24;;;;;;;;;;;18.60;99.90;;;;;;5116923;28;19912;-23
2022/10/29 01:14:13;;;;;;;;;;;18.60;99.90;;;;;;5117310;28;20002;-24
2022/10/29 01:16:46;;;;;;;;;;;18.60;99.90;;;;;;5115823;27;20026;-24
2022/10/29 01:19:27;;;;;;;;;;;18.60;99.90;;;;;;5115176;28;20383;-24
2022/10/29 01:21:59;;;;;;;;;;;18.60;99.90;;;;;;5114940;28;20384;-24
2022/10/29 01:24:44;;;;;;;;;;;18.60;99.90;;;;;;5114461;28;19914;-24
2022/10/29 01:27:19;;;;;;;;;;;18.60;99.90;;;;;;5114470;28;20444;-24
2022/10/29 01:30:03;;;;;;;;;;;18.60;99.90;;;;;;5114744;28;20048;-24
2022/10/29 01:32:29;;;;;;;;;;;18.60;99.90;;;;;;5114537;28;20352;-23
2022/10/29 01:35:03;;;;;;;;;;;18.60;99.90;;;;;;5114720;28;19996;-24
2022/10/29 01:37:31;;;;;;;;;;;18.60;99.90;;;;;;5114516;27;19912;-24
2022/10/29 01:40:05;;;;;;;;;;;18.60;99.90;;;;;;5112668;28;19912;-24
2022/10/29 01:42:38;;;;;;;;;;;18.50;99.90;;;;;;5113268;28;19912;-24
2022/10/29 01:45:18;;;;;;;;;;;18.60;99.90;;;;;;5113250;28;19915;-24
2022/10/29 01:47:48;;;;;;;;;;;18.60;99.90;;;;;;5113730;28;20369;-24
2022/10/29 01:50:16;;;;;;;;;;;18.60;99.90;;;;;;5113598;28;19912;-24
2022/10/29 01:52:42;;;;;;;;;;;18.50;99.90;;;;;;5113370;28;19912;-24
2022/10/29 01:55:08;;;;;;;;;;;18.50;99.90;;;;;;5113362;28;19908;-24
2022/10/29 01:57:35;;;;;;;;;;;18.50;99.90;;;;;;5114035;28;19908;-24
2022/10/29 02:00:04;;;;;;;;;;;18.50;99.90;;;;;;5114154;28;19911;-24
2022/10/29 02:02:48;;;;;;;;;;;18.50;99.90;;;;;;5113144;28;19912;-24
2022/10/29 02:05:21;;;;;;;;;;;18.50;99.90;;;;;;5114011;28;19922;-24
2022/10/29 02:07:52;;;;;;;;;;;18.50;99.90;;;;;;5113895;28;19912;-24
2022/10/29 02:10:37;;;;;;;;;;;18.50;99.90;;;;;;5113783;28;20361;-23
2022/10/29 02:13:03;;;;;;;;;;;18.50;99.90;;;;;;5112068;28;19912;-23
2022/10/29 02:15:41;;;;;;;;;;;18.50;99.90;;;;;;5114768;28;19950;-24
2022/10/29 02:18:07;;;;;;;;;;;18.50;99.90;;;;;;5113353;28;19912;-24
2022/10/29 02:20:33;;;;;;;;;;;18.50;99.90;;;;;;5113564;28;19912;-23
2022/10/29 02:22:59;;;;;;;;;;;18.50;99.90;;;;;;5112555;28;19919;-23
2022/10/29 02:25:25;;;;;;;;;;;18.50;99.90;;;;;;5113779;28;19908;-24
2022/10/29 02:27:50;;;;;;;;;;;18.50;99.90;;;;;;5112798;28;20281;-24
2022/10/29 02:30:16;;;;;;;;;;;18.50;99.90;;;;;;5117017;28;19915;-24
2022/10/29 02:32:42;;;;;;;;;;;18.50;99.90;;;;;;5119025;28;19911;-24
2022/10/29 02:35:07;;;;;;;;;;;18.50;99.90;;;;;;5113817;28;19918;-24
2022/10/29 02:37:33;;;;;;;;;;;18.50;99.90;;;;;;5113475;28;19916;-24
2022/10/29 02:39:58;;;;;;;;;;;18.50;99.90;;;;;;5114044;28;19916;-24
2022/10/29 02:42:24;;;;;;;;;;;18.50;99.90;;;;;;5113394;28;19950;-24
2022/10/29 02:44:50;;;;;;;;;;;18.50;99.90;;;;;;5113237;28;20420;-24
2022/10/29 02:47:15;;;;;;;;;;;18.50;99.90;;;;;;5113293;28;19908;-24
2022/10/29 02:49:41;;;;;;;;;;;18.50;99.90;;;;;;5113790;28;20276;-24
2022/10/29 02:52:06;;;;;;;;;;;18.50;99.90;;;;;;5111922;28;20403;-24
2022/10/29 02:54:32;;;;;;;;;;;18.40;99.90;;;;;;5112846;28;19915;-24
2022/10/29 02:56:57;;;;;;;;;;;18.50;99.90;;;;;;5112725;28;20276;-24
2022/10/29 02:59:23;;;;;;;;;;;18.40;99.90;;;;;;5112379;28;19965;-24
2022/10/29 03:01:48;;;;;;;;;;;18.50;99.90;;;;;;5112068;28;20304;-24
2022/10/29 03:04:14;;;;;;;;;;;18.40;99.90;;;;;;5112014;28;20444;-24
2022/10/29 03:06:39;;;;;;;;;;;18.40;99.90;;;;;;5113227;28;19907;-24
2022/10/29 03:09:05;;;;;;;;;;;18.50;99.90;;;;;;5113002;28;19911;-23
2022/10/29 03:11:31;;;;;;;;;;;18.50;99.90;;;;;;5112800;28;19933;-23
2022/10/29 03:13:57;;;;;;;;;;;18.50;99.90;;;;;;5112134;28;19908;-23
2022/10/29 03:16:22;;;;;;;;;;;18.40;99.90;;;;;;5112687;28;19933;-23
2022/10/29 03:18:48;;;;;;;;;;;18.40;99.90;;;;;;5112498;28;19907;-24
2022/10/29 03:21:13;;;;;;;;;;;18.40;99.90;;;;;;5112503;28;19911;-23
2022/10/29 03:23:39;;;;;;;;;;;18.40;99.90;;;;;;5112179;28;20006;-24
2022/10/29 03:26:04;;;;;;;;;;;18.40;99.90;;;;;;5112939;28;19915;-23
2022/10/29 03:28:30;;;;;;;;;;;18.40;99.90;;;;;;5112895;28;19911;-23
2022/10/29 03:30:58;;;;;;;;;;;18.40;99.90;;;;;;5112597;28;19912;-23
2022/10/29 03:33:25;;;;;;;;;;;18.40;99.90;;;;;;5112119;28;19908;-24
2022/10/29 03:35:57;;;;;;;;;;;18.30;99.90;;;;;;5112188;28;19916;-23
2022/10/29 03:38:23;;;;;;;;;;;18.40;99.90;;;;;;5111955;28;20284;-23
2022/10/29 03:40:48;;;;;;;;;;;18.40;99.90;;;;;;5112555;28;19912;-23
2022/10/29 03:43:14;;;;;;;;;;;18.40;99.90;;;;;;5111553;28;19908;-23
2022/10/29 03:45:39;;;;;;;;;;;18.40;99.90;;;;;;5111840;28;19908;-23
2022/10/29 03:48:05;;;;;;;;;;;18.40;99.90;;;;;;5111781;28;20310;-23
2022/10/29 03:50:30;;;;;;;;;;;18.30;99.90;;;;;;5111833;28;19907;-24
2022/10/29 03:52:56;;;;;;;;;;;18.30;99.90;;;;;;5111227;28;19911;-24
2022/10/29 03:55:22;;;;;;;;;;;18.30;99.90;;;;;;5115563;28;19916;-24
2022/10/29 03:57:47;;;;;;;;;;;18.40;99.90;;;;;;5114477;28;19946;-24
2022/10/29 04:00:13;;;;;;;;;;;18.30;99.90;;;;;;5115869;28;19911;-24
2022/10/29 04:02:39;;;;;;;;;;;18.40;99.90;;;;;;5113809;28;19995;-24
2022/10/29 04:05:04;;;;;;;;;;;18.40;99.90;;;;;;5115680;28;19914;-24
2022/10/29 04:07:30;;;;;;;;;;;18.30;99.90;;;;;;5115568;28;19918;-24
2022/10/29 04:09:55;;;;;;;;;;;18.40;99.90;;;;;;5115489;28;19907;-24
2022/10/29 04:12:21;;;;;;;;;;;18.30;99.90;;;;;;5115459;28;19934;-24
2022/10/29 04:14:47;;;;;;;;;;;18.40;99.90;;;;;;5115927;28;19984;-24
2022/10/29 04:17:12;;;;;;;;;;;18.30;99.90;;;;;;5115884;28;19913;-23
2022/10/29 04:19:38;;;;;;;;;;;18.30;99.90;;;;;;5114009;28;20035;-24
2022/10/29 04:22:03;;;;;;;;;;;18.30;99.90;;;;;;5115684;28;19911;-24
2022/10/29 04:24:29;;;;;;;;;;;18.30;99.90;;;;;;5115202;28;20389;-23
2022/10/29 04:26:54;;;;;;;;;;;18.30;99.90;;;;;;5115344;28;19954;-24
2022/10/29 04:29:20;;;;;;;;;;;18.30;99.90;;;;;;5115386;28;19908;-23
2022/10/29 04:31:46;;;;;;;;;;;18.30;99.90;;;;;;5114420;28;20356;-24
2022/10/29 04:34:11;;;;;;;;;;;18.30;99.90;;;;;;5116078;28;19908;-23
2022/10/29 04:36:37;;;;;;;;;;;18.30;99.90;;;;;;5115032;28;19960;-23
2022/10/29 04:39:03;;;;;;;;;;;18.30;99.90;;;;;;5113629;28;19915;-23
2022/10/29 04:41:28;;;;;;;;;;;18.30;99.90;;;;;;5115463;28;19912;-23
2022/10/29 04:43:54;;;;;;;;;;;18.30;99.90;;;;;;5114767;28;20056;-23
2022/10/29 04:46:19;;;;;;;;;;;18.30;99.90;;;;;;5114851;28;19911;-23
2022/10/29 04:48:45;;;;;;;;;;;18.20;99.90;;;;;;5114831;28;19943;-23
2022/10/29 04:51:23;;;;;;;;;;;18.30;99.90;;;;;;5114550;28;20333;-23
2022/10/29 04:53:49;;;;;;;;;;;18.20;99.90;;;;;;5114382;28;19919;-23
2022/10/29 04:56:14;;;;;;;;;;;18.20;99.90;;;;;;5116773;28;19908;-23
2022/10/29 04:58:40;;;;;;;;;;;18.20;99.90;;;;;;5115361;28;20044;-23
2022/10/29 05:01:05;;;;;;;;;;;18.20;99.90;;;;;;5115201;28;19939;-23
2022/10/29 05:03:31;;;;;;;;;;;18.20;99.90;;;;;;5114111;28;19915;-23
2022/10/29 05:05:57;;;;;;;;;;;18.20;99.90;;;;;;5113956;28;19959;-23
2022/10/29 05:08:22;;;;;;;;;;;18.20;99.90;;;;;;5114729;28;19918;-23
2022/10/29 05:10:48;;;;;;;;;;;18.20;99.90;;;;;;5113633;28;19908;-23
2022/10/29 05:13:13;;;;;;;;;;;18.20;99.90;;;;;;5112575;28;19915;-23
2022/10/29 05:15:39;;;;;;;;;;;18.20;99.90;;;;;;5114523;28;20430;-23
2022/10/29 05:18:05;;;;;;;;;;;18.20;99.90;;;;;;5114291;28;20003;-23
2022/10/29 05:20:30;;;;;;;;;;;18.20;99.90;;;;;;5114247;28;19983;-23
2022/10/29 05:23:03;;;;;;;;;;;18.10;99.90;;;;;;5114126;28;19998;-23
2022/10/29 05:25:29;;;;;;;;;;;18.20;99.90;;;;;;5114175;28;20606;-23
2022/10/29 05:28:04;;;;;;;;;;;18.20;99.90;;;;;;5114422;28;19996;-23
2022/10/29 05:30:30;;;;;;;;;;;18.20;99.90;;;;;;5113906;28;19962;-23
2022/10/29 05:32:55;;;;;;;;;;;18.10;99.90;;;;;;5113491;28;19912;-23
2022/10/29 05:35:21;;;;;;;;;;;18.10;99.90;;;;;;5113945;28;19911;-23
2022/10/29 05:37:53;;;;;;;;;;;18.10;99.90;;;;;;5114312;27;19908;-23
2022/10/29 05:40:20;;;;;;;;;;;18.10;99.90;;;;;;5113922;28;19916;-23
2022/10/29 05:42:45;;;;;;;;;;;18.10;99.90;;;;;;5113415;28;19953;-23
2022/10/29 05:45:11;;;;;;;;;;;18.10;99.90;;;;;;5119404;28;19919;-23
2022/10/29 05:47:36;;;;;;;;;;;18.10;99.90;;;;;;5118180;28;19931;-23
2022/10/29 05:50:02;;;;;;;;;;;18.10;99.90;;;;;;5114443;28;19908;-23
2022/10/29 05:52:28;;;;;;;;;;;18.10;99.90;;;;;;5114180;28;19939;-23
2022/10/29 05:54:53;;;;;;;;;;;18.10;99.90;;;;;;5113957;28;20376;-23
2022/10/29 05:57:19;;;;;;;;;;;18.10;99.90;;;;;;5113328;28;19916;-23
2022/10/29 05:59:45;;;;;;;;;;;18.10;99.90;;;;;;5114426;28;19961;-23
2022/10/29 06:02:11;;;;;;;;;;;18.00;99.90;;;;;;5113387;28;19912;-24
2022/10/29 06:04:36;;;;;;;;;;;18.00;99.90;;;;;;5113885;28;19943;-23
2022/10/29 06:07:02;;;;;;;;;;;18.00;99.90;;;;;;5113955;28;20292;-23
2022/10/29 06:09:28;;;;;;;;;;;18.00;99.90;;;;;;5113821;28;20284;-23
2022/10/29 06:11:54;;;;;;;;;;;18.00;99.90;;;;;;5113407;28;19960;-23
2022/10/29 06:14:19;;;;;;;;;;;18.00;99.90;;;;;;5113069;28;19918;-23
2022/10/29 06:16:45;;;;;;;;;;;18.00;99.90;;;;;;5112522;28;20281;-23
2022/10/29 06:19:10;;;;;;;;;;;18.00;99.90;;;;;;5113788;28;20002;-24
2022/10/29 06:21:36;;;;;;;;;;;18.00;99.90;;;;;;5113311;28;19908;-23
2022/10/29 06:24:01;;;;;;;;;;;18.00;99.90;;;;;;5112534;28;20096;-23
2022/10/29 06:26:27;;;;;;;;;;;18.00;99.90;;;;;;5111449;28;19931;-23
2022/10/29 06:28:52;;;;;;;;;;;18.00;99.90;;;;;;5112870;28;20337;-23
2022/10/29 06:31:18;;;;;;;;;;;18.00;99.90;;;;;;5112515;28;19907;-24
2022/10/29 06:33:43;;;;;;;;;;;18.00;99.90;;;;;;5112508;28;19911;-24
2022/10/29 06:36:09;;;;;;;;;;;17.90;99.90;;;;;;5112619;28;20006;-23
2022/10/29 06:38:34;;;;;;;;;;;17.90;99.90;;;;;;5112870;28;20487;-23
2022/10/29 06:41:00;;;;;;;;;;;17.90;99.90;;;;;;5112829;28;19912;-23
2022/10/29 06:43:25;;;;;;;;;;;17.90;99.90;;;;;;5111971;28;19908;-23
2022/10/29 06:45:51;;;;;;;;;;;17.90;99.90;;;;;;5111303;28;19912;-23
2022/10/29 06:48:16;;;;;;;;;;;17.90;99.90;;;;;;5112801;28;20015;-25
2022/10/29 06:50:42;;;;;;;;;;;17.90;99.90;;;;;;5111553;28;19959;-23
2022/10/29 06:53:10;;;;;;;;;;;17.90;99.90;;;;;;5112108;28;19915;-23
2022/10/29 06:55:35;;;;;;;;;;;17.90;99.90;;;;;;5112180;28;19907;-24
2022/10/29 06:58:04;;;;;;;;;;;17.90;99.90;;;;;;5112228;28;19960;-24
2022/10/29 07:00:30;;;;;;;;;;;17.90;99.90;;;;;;5112046;28;19912;-24
2022/10/29 07:02:56;;;;;;;;;;;17.90;99.90;;;;;;5111974;28;19907;-24
2022/10/29 07:05:22;;;;;;;;;;;18.00;99.90;;;;;;5112270;28;19912;-24
2022/10/29 07:07:48;;;;;;;;;;;18.00;99.90;;;;;;5112147;28;20397;-24
2022/10/29 07:10:13;;;;;;;;;;;18.00;99.90;;;;;;5112745;28;19932;-24
2022/10/29 07:12:40;;;;;;;;;;;18.00;99.90;;;;;;5111987;28;20376;-24
2022/10/29 07:15:06;;;;;;;;;;;18.00;99.90;;;;;;5112028;28;19907;-24
2022/10/29 07:17:31;;;;;;;;;;;18.00;99.90;;;;;;5112266;28;20242;-24
2022/10/29 07:19:57;;;;;;;;;;;18.00;99.90;;;;;;5112064;28;19934;-24
2022/10/29 07:22:22;;;;;;;;;;;18.00;99.90;;;;;;5112478;28;19915;-23
2022/10/29 07:24:48;;;;;;;;;;;18.00;99.90;;;;;;5111901;28;19992;-24
2022/10/29 07:27:13;;;;;;;;;;;18.00;99.90;;;;;;5111728;28;19927;-24
2022/10/29 07:29:39;;;;;;;;;;;18.10;99.90;;;;;;5112037;28;20308;-24
2022/10/29 07:32:04;;;;;;;;;;;18.10;99.90;;;;;;5112924;28;20292;-24
2022/10/29 07:34:30;;;;;;;;;;;18.10;99.90;;;;;;5111172;28;19908;-24
2022/10/29 07:36:55;;;;;;;;;;;18.10;99.90;;;;;;5119430;22;19924;-25
2022/10/29 07:39:21;;;;;;;;;;;18.10;99.90;;;;;;5091967;28;19952;-25
2022/10/29 07:41:47;;;;;;;;;;;18.10;99.90;;;;;;5092229;28;19909;-26
2022/10/29 07:44:12;;;;;;;;;;;18.10;99.90;;;;;;5091726;28;19912;-26
2022/10/29 07:46:38;;;;;;;;;;;18.10;99.90;;;;;;5092306;28;19908;-27
2022/10/29 07:49:03;;;;;;;;;;;18.10;99.90;;;;;;5092001;28;19948;-25
2022/10/29 07:51:29;;;;;;;;;;;18.10;99.90;;;;;;5092384;28;20282;-25
2022/10/29 07:53:54;;;;;;;;;;;18.20;99.90;;;;;;5091829;28;19908;-25
2022/10/29 07:56:20;;;;;;;;;;;18.20;99.90;;;;;;5092238;28;19912;-25
2022/10/29 07:58:45;;;;;;;;;;;18.20;99.90;;;;;;5091871;28;19915;-25
2022/10/29 08:01:11;;;;;;;;;;;18.20;99.90;;;;;;5092122;28;19939;-25
2022/10/29 08:03:36;;;;;;;;;;;18.20;99.90;;;;;;5091992;28;20400;-25
2022/10/29 08:06:02;;;;;;;;;;;18.30;99.90;;;;;;5092364;28;20003;-26
2022/10/29 08:08:27;;;;;;;;;;;18.30;99.90;;;;;;5091860;28;20037;-26
2022/10/29 08:10:57;;;;;;;;;;;18.40;99.90;;;;;;5092061;28;19908;-25
2022/10/29 08:13:23;;;;;;;;;;;18.50;99.90;;;;;;5091714;28;19923;-25
2022/10/29 08:15:48;;;;;;;;;;;18.50;99.90;;;;;;5091927;28;19908;-27
2022/10/29 08:18:15;;;;;;;;;;;18.50;99.90;;;;;;5092050;28;19908;-25
2022/10/29 08:20:40;;;;;;;;;;;18.60;99.90;;;;;;5092063;28;20300;-26
2022/10/29 08:23:06;;;;;;;;;;;18.50;99.90;;;;;;5091663;28;20373;-26
2022/10/29 08:25:31;;;;;;;;;;;18.60;99.90;;;;;;5091731;28;19908;-26
2022/10/29 08:27:58;;;;;;;;;;;18.60;99.90;;;;;;5092103;28;19970;-26
2022/10/29 08:30:23;;;;;;;;;;;18.60;99.90;;;;;;5090122;28;19961;-27
2022/10/29 08:32:49;;;;;;;;;;;18.60;99.90;;;;;;5091045;28;19908;-25
2022/10/29 08:35:14;;;;;;;;;;;18.60;99.90;;;;;;5091606;28;19912;-26
2022/10/29 08:37:41;;;;;;;;;;;18.60;99.90;;;;;;5091454;28;19920;-26
2022/10/29 08:40:12;;;;;;;;;;;18.70;99.90;;;;;;5093133;28;19973;-26
2022/10/29 08:42:40;;;;;;;;;;;18.70;99.90;;;;;;5095090;28;20323;-27
2022/10/29 08:45:10;;;;;;;;;;;18.70;99.90;;;;;;5095333;28;19968;-25
2022/10/29 08:47:44;;;;;;;;;;;18.80;99.90;;;;;;5095405;28;20402;-27
2022/10/29 08:50:15;;;;;;;;;;;18.80;99.90;;;;;;5096209;28;19908;-26
2022/10/29 08:52:41;;;;;;;;;;;18.80;99.90;;;;;;5094584;28;19962;-25
2022/10/29 08:55:06;;;;;;;;;;;18.90;99.90;;;;;;5094852;28;19914;-25
2022/10/29 08:57:34;;;;;;;;;;;18.90;99.90;;;;;;5095409;28;19908;-26
2022/10/29 09:00:07;;;;;;;;;;;18.90;99.90;;;;;;5095045;28;20007;-25
2022/10/29 09:02:32;;;;;;;;;;;18.90;99.90;;;;;;5094421;28;19908;-25
2022/10/29 09:04:58;;;;;;;;;;;18.90;99.90;;;;;;5093611;28;19908;-25
2022/10/29 09:07:42;;;;;;;;;;;19.00;99.90;;;;;;5094205;28;19912;-25
2022/10/29 09:10:26;;;;;;;;;;;19.00;99.90;;;;;;5094507;28;19912;-25
2022/10/29 09:12:54;;;;;;;;;;;19.00;99.90;;;;;;5093725;28;19951;-26
2022/10/29 09:15:26;;;;;;;;;;;19.00;99.90;;;;;;5094452;28;19922;-25
2022/10/29 09:18:10;;;;;;;;;;;19.10;99.90;;;;;;5094394;28;20296;-26
2022/10/29 09:20:42;;;;;;;;;;;19.10;99.90;;;;;;5094634;28;19916;-26
2022/10/29 09:23:07;;;;;;;;;;;19.10;99.90;;;;;;5094215;28;20296;-26
2022/10/29 09:25:38;;;;;;;;;;;19.10;99.90;;;;;;5094251;28;19915;-25
2022/10/29 09:28:23;;;;;;;;;;;19.10;99.90;;;;;;5094075;28;19908;-26
2022/10/29 09:31:08;;;;;;;;;;;19.20;99.90;;;;;;5094266;28;19947;-25
2022/10/29 09:33:33;;;;;;;;;;;19.20;99.90;;;;;;5093786;28;19984;-25
2022/10/29 09:35:59;;;;;;;;;;;19.20;99.90;;;;;;5093997;28;20372;-25
2022/10/29 09:38:29;;;;;;;;;;;19.20;99.90;;;;;;5093046;28;19908;-25
2022/10/29 09:40:56;;;;;;;;;;;19.30;99.90;;;;;;5093468;28;19912;-26
2022/10/29 09:43:42;;;;;;;;;;;19.30;99.90;;;;;;5092905;28;19920;-25
2022/10/29 09:46:22;;;;;;;;;;;19.40;99.90;;;;;;5093377;28;20376;-25
2022/10/29 09:49:04;;;;;;;;;;;19.40;99.90;;;;;;5093323;28;19943;-25
2022/10/29 09:51:30;;;;;;;;;;;19.40;99.90;;;;;;5092345;28;19915;-26
2022/10/29 09:53:55;;;;;;;;;;;19.40;99.90;;;;;;5093092;28;19908;-25
2022/10/29 09:56:21;;;;;;;;;;;19.40;99.90;;;;;;5093615;28;19914;-27
2022/10/29 09:58:51;;;;;;;;;;;19.50;99.90;;;;;;5093193;28;19915;-27
2022/10/29 10:01:16;;;;;;;;;;;19.50;99.90;;;;;;5093510;28;19912;-27
2022/10/29 10:03:46;;;;;;;;;;;19.50;99.90;;;;;;5092898;28;20384;-25
2022/10/29 10:06:13;;;;;;;;;;;19.50;99.90;;;;;;5093381;28;19954;-25
2022/10/29 10:08:58;;;;;;;;;;;19.60;99.90;;;;;;5093141;28;20388;-25
2022/10/29 10:11:26;;;;;;;;;;;19.60;99.90;;;;;;5093513;28;19919;-25
2022/10/29 10:13:55;;;;;;;;;;;19.60;99.90;;;;;;5092499;28;19908;-27
2022/10/29 10:16:27;;;;;;;;;;;19.60;99.90;;;;;;5093021;28;20507;-25
2022/10/29 10:18:53;;;;;;;;;;;19.60;99.90;;;;;;5091336;28;19915;-25
2022/10/29 10:21:25;;;;;;;;;;;19.60;99.90;;;;;;5093121;28;19916;-26
2022/10/29 10:23:52;;;;;;;;;;;19.60;99.90;;;;;;5093029;28;19912;-26
2022/10/29 10:26:26;;;;;;;;;;;19.60;99.90;;;;;;5093694;28;19908;-27
2022/10/29 10:29:08;;;;;;;;;;;19.60;99.90;;;;;;5093726;28;19908;-27
2022/10/29 10:31:33;;;;;;;;;;;19.60;99.90;;;;;;5093662;28;19915;-27
2022/10/29 10:34:06;;;;;;;;;;;19.70;99.90;;;;;;5092741;28;19912;-25
2022/10/29 10:36:32;;;;;;;;;;;19.70;99.90;;;;;;5092657;28;19916;-25
2022/10/29 10:38:58;;;;;;;;;;;19.70;99.90;;;;;;5092686;28;19916;-25
2022/10/29 10:41:28;;;;;;;;;;;19.70;99.90;;;;;;5092881;28;20007;-27
2022/10/29 10:43:56;;;;;;;;;;;19.70;99.90;;;;;;5092083;28;19908;-25
2022/10/29 10:46:23;;;;;;;;;;;19.80;99.90;;;;;;5090857;28;20292;-25
2022/10/29 10:48:56;;;;;;;;;;;19.80;99.90;;;;;;5092997;28;19908;-26
2022/10/29 10:51:26;;;;;;;;;;;19.80;99.90;;;;;;5092472;28;19912;-25
2022/10/29 10:53:52;;;;;;;;;;;19.80;99.90;;;;;;5092357;28;19919;-26
2022/10/29 10:56:19;;;;;;;;;;;19.80;99.90;;;;;;5092892;28;19908;-25
2022/10/29 10:59:03;;;;;;;;;;;19.80;99.90;;;;;;5092518;28;19931;-26
2022/10/29 11:01:32;;;;;;;;;;;19.90;99.90;;;;;;5092647;28;19966;-25
2022/10/29 11:04:05;;;;;;;;;;;19.90;99.90;;;;;;5091519;28;19912;-25
2022/10/29 11:06:32;;;;;;;;;;;19.90;99.90;;;;;;5092287;28;20388;-25
2022/10/29 11:09:21;;;;;;;;;;;19.90;99.90;;;;;;5092491;28;19916;-26
2022/10/29 11:11:50;;;;;;;;;;;19.90;99.90;;;;;;5084113;28;19965;-25
2022/10/29 11:14:25;;;;;;;;;;;19.90;99.90;;;;;;5092036;28;19915;-25
2022/10/29 11:16:56;;;;;;;;;;;20.00;99.90;;;;;;5092309;28;20350;-25
2022/10/29 11:19:21;;;;;;;;;;;20.00;99.90;;;;;;5092506;28;20341;-25
2022/10/29 11:21:54;;;;;;;;;;;20.00;99.90;;;;;;5092373;28;19982;-25
2022/10/29 11:24:25;;;;;;;;;;;20.00;99.90;;;;;;5090648;28;20333;-26
2022/10/29 11:26:54;;;;;;;;;;;20.10;99.90;;;;;;5092076;28;20404;-25
2022/10/29 11:29:32;;;;;;;;;;;20.10;99.90;;;;;;5092230;28;19954;-26
2022/10/29 11:32:13;;;;;;;;;;;20.10;99.90;;;;;;5092363;28;19915;-25
2022/10/29 11:34:44;;;;;;;;;;;20.10;99.90;;;;;;5091570;28;19908;-27
2022/10/29 11:37:18;;;;;;;;;;;20.10;99.90;;;;;;5091716;28;19961;-25
2022/10/29 11:39:47;;;;;;;;;;;20.10;99.90;;;;;;5092049;28;19912;-26
2022/10/29 11:42:13;;;;;;;;;;;20.20;99.90;;;;;;5091629;28;19919;-26
2022/10/29 11:44:39;;;;;;;;;;;20.20;99.90;;;;;;5090974;28;19912;-26
2022/10/29 11:47:22;;;;;;;;;;;20.20;99.90;;;;;;5091346;28;19931;-26
2022/10/29 11:49:57;;;;;;;;;;;20.20;99.90;;;;;;5091250;28;19916;-26
2022/10/29 11:52:31;;;;;;;;;;;20.20;99.90;;;;;;5091565;28;20015;-27
2022/10/29 11:55:15;;;;;;;;;;;20.30;99.90;;;;;;5091409;28;19908;-25
2022/10/29 11:57:40;;;;;;;;;;;20.30;99.90;;;;;;5091257;28;19918;-26
2022/10/29 12:00:06;;;;;;;;;;;20.20;99.90;;;;;;5090980;28;19912;-26
2022/10/29 12:02:31;;;;;;;;;;;20.30;99.90;;;;;;5090872;28;19912;-27
2022/10/29 12:05:04;;;;;;;;;;;20.30;99.90;;;;;;5091319;28;19915;-26
2022/10/29 12:07:58;;;;;;;;;;;20.30;99.90;;;;;;5091175;28;20514;-25
2022/10/29 12:10:42;;;;;;;;;;;20.30;99.90;;;;;;5091446;28;19999;-25
2022/10/29 12:13:10;;;;;;;;;;;20.30;99.90;;;;;;5090884;28;19961;-25
2022/10/29 12:15:37;;;;;;;;;;;20.30;99.90;;;;;;5093895;28;19918;-27
2022/10/29 12:18:27;;;;;;;;;;;20.30;99.90;;;;;;5095599;28;20001;-27
2022/10/29 12:21:00;;;;;;;;;;;20.30;99.90;;;;;;5095474;28;19911;-25
2022/10/29 12:23:25;;;;;;;;;;;20.30;99.90;;;;;;5095394;28;19955;-25
2022/10/29 12:26:00;;;;;;;;;;;20.30;99.90;;;;;;5095413;28;20371;-27
2022/10/29 12:28:28;;;;;;;;;;;20.30;99.90;;;;;;5095687;28;20317;-26
2022/10/29 12:30:53;;;;;;;;;;;20.30;99.90;;;;;;5095583;28;19954;-25
2022/10/29 12:33:21;;;;;;;;;;;20.30;99.90;;;;;;5095386;28;19909;-26
2022/10/29 12:35:50;;;;;;;;;;;20.30;99.90;;;;;;5095227;28;19973;-27
2022/10/29 12:38:34;;;;;;;;;;;20.30;99.90;;;;;;5095286;28;20025;-26
2022/10/29 12:41:04;;;;;;;;;;;20.20;99.90;;;;;;5095228;28;19965;-25
2022/10/29 12:43:31;;;;;;;;;;;20.20;99.90;;;;;;5094507;28;19908;-25
2022/10/29 12:46:04;;;;;;;;;;;20.20;99.90;;;;;;5094505;28;19916;-26
2022/10/29 12:48:32;;;;;;;;;;;20.20;99.90;;;;;;5094646;28;19912;-25
2022/10/29 12:51:07;;;;;;;;;;;20.20;99.90;;;;;;5094830;28;19908;-25
2022/10/29 12:53:38;;;;;;;;;;;20.20;99.90;;;;;;5094359;28;19958;-25
2022/10/29 12:56:05;;;;;;;;;;;20.20;99.90;;;;;;5095155;28;20297;-25
2022/10/29 12:58:48;;;;;;;;;;;20.20;99.90;;;;;;5094226;28;19959;-26
2022/10/29 13:01:26;;;;;;;;;;;20.20;99.90;;;;;;5094361;28;20006;-25
2022/10/29 13:03:51;;;;;;;;;;;20.20;99.90;;;;;;5094156;28;19919;-26
2022/10/29 13:06:35;;;;;;;;;;;20.20;99.90;;;;;;5094554;28;19908;-25
2022/10/29 13:09:14;;;;;;;;;;;20.20;99.90;;;;;;5094306;28;19919;-25
2022/10/29 13:11:45;;;;;;;;;;;20.20;99.90;;;;;;5094617;28;19909;-25
2022/10/29 13:14:11;;;;;;;;;;;20.20;99.90;;;;;;5093856;28;20394;-25
2022/10/29 13:16:37;;;;;;;;;;;20.20;99.90;;;;;;5094308;28;19944;-25
2022/10/29 13:19:05;;;;;;;;;;;20.20;99.90;;;;;;5094548;28;19953;-25
2022/10/29 13:21:49;;;;;;;;;;;20.20;99.90;;;;;;5094280;28;19916;-26
2022/10/29 13:24:15;;;;;;;;;;;20.20;99.90;;;;;;5093905;28;19912;-25
2022/10/29 13:26:56;;;;;;;;;;;20.20;99.90;;;;;;5094021;28;19944;-25
2022/10/29 13:29:41;;;;;;;;;;;20.10;99.90;;;;;;5094116;28;19909;-25
2022/10/29 13:32:06;;;;;;;;;;;20.10;99.90;;;;;;5094339;28;19947;-26
2022/10/29 13:34:51;;;;;;;;;;;20.10;99.90;;;;;;5093710;28;20374;-25
2022/10/29 13:37:36;;;;;;;;;;;20.10;99.90;;;;;;5114367;22;19965;-23
2022/10/29 13:40:20;;;;;;;;;;;20.10;99.90;;;;;;5093301;28;20425;-23
2022/10/29 13:42:48;;;;;;;;;;;20.10;99.90;;;;;;5093031;28;20336;-24
2022/10/29 13:45:14;;;;;;;;;;;20.10;99.90;;;;;;5093251;28;19969;-23
2022/10/29 13:47:40;;;;;;;;;;;20.10;99.90;;;;;;5093186;28;19916;-23
2022/10/29 13:50:06;;;;;;;;;;;20.30;99.90;;;;;;5093480;28;20372;-23
2022/10/29 13:52:36;;;;;;;;;;;20.50;99.90;;;;;;5092668;28;19915;-24
2022/10/29 13:55:06;;;;;;;;;;;20.50;99.90;;;;;;5092980;28;20368;-24
2022/10/29 13:57:37;;;;;;;;;;;20.50;99.90;;;;;;5092864;28;19908;-24
2022/10/29 14:00:14;;;;;;;;;;;20.40;99.90;;;;;;5092591;28;20273;-23
2022/10/29 14:02:42;;;;;;;;;;;20.40;99.90;;;;;;5092368;28;19934;-23
2022/10/29 14:05:13;;;;;;;;;;;20.30;99.90;;;;;;5092769;28;19912;-23
2022/10/29 14:07:57;;;;;;;;;;;20.30;99.90;;;;;;5092939;28;19931;-24
2022/10/29 14:10:25;;;;;;;;;;;20.20;99.90;;;;;;5092658;28;20396;-24
2022/10/29 14:12:53;;;;;;;;;;;20.20;99.90;;;;;;5092067;28;19915;-23
2022/10/29 14:15:19;;;;;;;;;;;20.20;99.90;;;;;;5092501;28;19908;-23
2022/10/29 14:17:44;;;;;;;;;;;20.20;99.90;;;;;;5092291;28;19915;-23
2022/10/29 14:20:22;;;;;;;;;;;20.20;99.90;;;;;;5092856;28;20353;-23
2022/10/29 14:22:47;;;;;;;;;;;20.10;99.90;;;;;;5091985;28;19911;-24
2022/10/29 14:25:25;;;;;;;;;;;20.10;99.90;;;;;;5092284;28;19960;-23